createdAt,value
2018-11-13T00:00:17.580Z,10.31
2018-11-13T00:01:17.565Z,10.15
2018-11-13T00:02:17.555Z,10.19
2018-11-13T00:03:17.546Z,10.20
2018-11-13T00:04:17.552Z,10.19
2018-11-13T00:05:17.519Z,10.10
2018-11-13T00:06:17.517Z,10.10
2018-11-13T00:07:17.498Z,10.17
2018-11-13T00:08:17.494Z,10.13
2018-11-13T00:09:17.505Z,10.12
2018-11-13T00:10:17.471Z,10.12
2018-11-13T00:11:17.513Z,10.07
2018-11-13T00:12:17.445Z,9.97
2018-11-13T00:13:17.436Z,10.10
2018-11-13T00:14:17.429Z,10.02
2018-11-13T00:15:17.573Z,10.07
2018-11-13T00:16:17.399Z,9.99
2018-11-13T00:17:17.391Z,9.94
2018-11-13T00:18:17.381Z,9.95
2018-11-13T00:19:17.366Z,9.98
2018-11-13T00:20:17.394Z,9.97
2018-11-13T00:21:17.350Z,10.01
2018-11-13T00:22:17.338Z,9.99
2018-11-13T00:23:17.330Z,10.07
2018-11-13T00:24:17.332Z,10.05
2018-11-13T00:25:17.323Z,9.95
2018-11-13T00:26:17.296Z,9.98
2018-11-13T00:27:17.316Z,9.86
2018-11-13T00:28:17.276Z,9.97
2018-11-13T00:29:17.265Z,9.89
2018-11-13T00:30:17.272Z,9.76
2018-11-13T00:31:17.237Z,9.79
2018-11-13T00:32:17.237Z,9.83
2018-11-13T00:33:17.253Z,9.77
2018-11-13T00:34:17.211Z,9.80
2018-11-13T00:35:17.204Z,9.84
2018-11-13T00:36:17.186Z,9.83
2018-11-13T00:37:17.188Z,9.74
2018-11-13T00:38:17.183Z,9.86
2018-11-13T00:39:17.361Z,9.82
2018-11-13T00:40:17.509Z,9.76
2018-11-13T00:41:17.137Z,9.94
2018-11-13T00:42:17.123Z,9.92
2018-11-13T00:43:17.132Z,10.01
2018-11-13T00:44:17.103Z,9.91
2018-11-13T00:45:17.123Z,9.83
2018-11-13T00:46:17.088Z,9.94
2018-11-13T00:47:17.073Z,9.82
2018-11-13T00:48:17.118Z,9.82
2018-11-13T00:49:17.046Z,9.82
2018-11-13T00:50:17.058Z,9.66
2018-11-13T00:51:17.022Z,9.64
2018-11-13T00:52:17.021Z,9.74
2018-11-13T00:53:17.015Z,9.62
2018-11-13T00:54:16.999Z,9.51
2018-11-13T00:55:17.005Z,9.58
2018-11-13T00:56:16.975Z,9.50
2018-11-13T00:57:16.972Z,9.43
2018-11-13T00:58:16.948Z,9.46
2018-11-13T00:59:16.957Z,9.51
2018-11-13T01:00:17.006Z,9.47
2018-11-13T01:01:16.925Z,9.47
2018-11-13T01:02:16.931Z,9.36
2018-11-13T01:03:16.892Z,9.40
2018-11-13T01:04:16.888Z,9.32
2018-11-13T01:05:16.947Z,9.44
2018-11-13T01:06:16.882Z,9.39
2018-11-13T01:07:16.865Z,9.47
2018-11-13T01:08:16.843Z,9.47
2018-11-13T01:09:16.835Z,9.43
2018-11-13T01:10:16.847Z,9.56
2018-11-13T01:11:16.813Z,9.54
2018-11-13T01:12:16.802Z,9.51
2018-11-13T01:13:16.787Z,9.50
2018-11-13T01:14:16.804Z,9.46
2018-11-13T01:15:16.771Z,9.54
2018-11-13T01:16:16.759Z,9.55
2018-11-13T01:17:16.763Z,9.55
2018-11-13T01:18:16.752Z,9.58
2018-11-13T01:19:16.728Z,9.65
2018-11-13T01:20:16.719Z,9.68
2018-11-13T01:21:16.718Z,9.69
2018-11-13T01:22:16.715Z,9.68
2018-11-13T01:23:16.707Z,9.74
2018-11-13T01:24:16.855Z,9.79
2018-11-13T01:25:16.659Z,9.79
2018-11-13T01:26:16.666Z,9.82
2018-11-13T01:27:16.640Z,9.79
2018-11-13T01:28:16.624Z,9.80
2018-11-13T01:29:16.637Z,9.89
2018-11-13T01:30:16.604Z,9.95
2018-11-13T01:31:16.592Z,10.05
2018-11-13T01:32:16.610Z,9.89
2018-11-13T01:33:16.572Z,9.98
2018-11-13T01:34:16.560Z,10.02
2018-11-13T01:35:16.563Z,9.92
2018-11-13T01:36:16.541Z,9.95
2018-11-13T01:37:16.531Z,10.04
2018-11-13T01:38:16.523Z,10.02
2018-11-13T01:39:16.521Z,9.98
2018-11-13T01:40:16.518Z,10.01
2018-11-13T01:41:16.483Z,9.94
2018-11-13T01:42:16.522Z,10.07
2018-11-13T01:43:16.460Z,9.98
2018-11-13T01:44:16.459Z,9.95
2018-11-13T01:45:16.448Z,9.86
2018-11-13T01:46:16.463Z,9.89
2018-11-13T01:47:16.423Z,9.84
2018-11-13T01:48:16.406Z,9.86
2018-11-13T01:49:16.398Z,9.79
2018-11-13T01:50:16.408Z,9.69
2018-11-13T01:51:16.399Z,9.65
2018-11-13T01:52:16.391Z,9.66
2018-11-13T01:53:16.362Z,9.59
2018-11-13T01:54:16.372Z,9.54
2018-11-13T01:55:16.331Z,9.54
2018-11-13T01:56:16.343Z,9.48
2018-11-13T01:57:16.318Z,9.51
2018-11-13T01:58:16.312Z,9.46
2018-11-13T01:59:16.297Z,9.40
2018-11-13T02:00:16.293Z,9.43
2018-11-13T02:01:16.288Z,9.36
2018-11-13T02:02:16.258Z,9.44
2018-11-13T02:03:16.244Z,9.34
2018-11-13T02:04:16.260Z,9.29
2018-11-13T02:05:16.230Z,9.37
2018-11-13T02:06:16.216Z,9.43
2018-11-13T02:07:16.205Z,9.34
2018-11-13T02:08:16.202Z,9.29
2018-11-13T02:09:16.213Z,9.34
2018-11-13T02:10:16.173Z,9.32
2018-11-13T02:11:16.164Z,9.34
2018-11-13T02:12:16.151Z,9.39
2018-11-13T02:13:16.154Z,9.28
2018-11-13T02:14:16.131Z,9.26
2018-11-13T02:15:16.120Z,9.25
2018-11-13T02:16:16.134Z,9.26
2018-11-13T02:17:16.100Z,9.29
2018-11-13T02:18:16.091Z,9.41
2018-11-13T02:19:16.077Z,9.28
2018-11-13T02:20:16.064Z,9.37
2018-11-13T02:21:16.076Z,9.46
2018-11-13T02:22:16.043Z,9.48
2018-11-13T02:23:16.036Z,9.50
2018-11-13T02:24:16.024Z,9.40
2018-11-13T02:25:16.010Z,9.48
2018-11-13T02:26:16.024Z,9.48
2018-11-13T02:27:15.984Z,9.54
2018-11-13T02:28:15.980Z,9.51
2018-11-13T02:29:15.969Z,9.55
2018-11-13T02:30:15.963Z,9.48
2018-11-13T02:31:15.948Z,9.46
2018-11-13T02:32:15.948Z,9.39
2018-11-13T02:33:15.922Z,9.34
2018-11-13T02:34:15.910Z,9.39
2018-11-13T02:35:15.964Z,9.32
2018-11-13T02:36:15.899Z,9.29
2018-11-13T02:37:15.899Z,9.32
2018-11-13T02:38:15.870Z,9.36
2018-11-13T02:39:15.856Z,9.36
2018-11-13T02:40:15.872Z,9.26
2018-11-13T02:41:15.836Z,9.26
2018-11-13T02:42:15.846Z,9.21
2018-11-13T02:43:15.821Z,9.16
2018-11-13T02:44:15.801Z,9.11
2018-11-13T02:45:15.816Z,9.14
2018-11-13T02:46:15.799Z,9.11
2018-11-13T02:47:15.791Z,9.04
2018-11-13T02:48:15.761Z,9.06
2018-11-13T02:49:15.756Z,9.10
2018-11-13T02:50:15.747Z,9.16
2018-11-13T02:51:15.731Z,9.23
2018-11-13T02:52:15.748Z,9.26
2018-11-13T02:53:15.704Z,9.32
2018-11-13T02:54:15.700Z,9.31
2018-11-13T02:55:16.328Z,9.32
2018-11-13T02:56:16.567Z,9.48
2018-11-13T02:57:15.678Z,9.48
2018-11-13T02:58:15.666Z,9.55
2018-11-13T02:59:16.028Z,9.51
2018-11-13T03:00:16.517Z,9.56
2018-11-13T03:01:15.647Z,9.61
2018-11-13T03:02:15.630Z,9.61
2018-11-13T03:03:15.604Z,9.69
2018-11-13T03:04:15.626Z,9.69
2018-11-13T03:05:15.578Z,9.80
2018-11-13T03:06:15.564Z,9.79
2018-11-13T03:07:15.571Z,9.86
2018-11-13T03:08:15.595Z,9.82
2018-11-13T03:09:15.952Z,9.87
2018-11-13T03:10:15.522Z,9.83
2018-11-13T03:11:15.512Z,9.92
2018-11-13T03:12:18.282Z,9.87
2018-11-13T03:13:15.515Z,9.89
2018-11-13T03:14:15.511Z,9.91
2018-11-13T03:15:15.535Z,9.94
2018-11-13T03:16:15.535Z,9.89
2018-11-13T03:17:15.460Z,9.99
2018-11-13T03:18:15.437Z,9.97
2018-11-13T03:19:15.426Z,9.99
2018-11-13T03:20:15.436Z,10.02
2018-11-13T03:21:15.414Z,9.98
2018-11-13T03:22:15.402Z,9.99
2018-11-13T03:23:15.474Z,10.04
2018-11-13T03:24:15.491Z,9.98
2018-11-13T03:25:15.355Z,9.99
2018-11-13T03:26:15.351Z,10.02
2018-11-13T03:27:15.343Z,10.13
2018-11-13T03:28:15.330Z,10.02
2018-11-13T03:29:15.332Z,9.98
2018-11-13T03:30:15.313Z,10.12
2018-11-13T03:31:15.306Z,10.05
2018-11-13T03:32:15.304Z,10.10
2018-11-13T03:33:15.289Z,10.04
2018-11-13T03:34:15.290Z,10.13
2018-11-13T03:35:15.251Z,9.98
2018-11-13T03:36:15.248Z,9.95
2018-11-13T03:37:15.246Z,10.02
2018-11-13T03:38:15.221Z,10.07
2018-11-13T03:39:15.228Z,10.07
2018-11-13T03:40:15.211Z,10.04
2018-11-13T03:41:15.205Z,10.01
2018-11-13T03:42:15.201Z,10.02
2018-11-13T03:43:15.168Z,9.99
2018-11-13T03:44:15.160Z,9.98
2018-11-13T03:45:15.152Z,10.01
2018-11-13T03:46:15.136Z,9.95
2018-11-13T03:47:15.123Z,10.07
2018-11-13T03:48:15.143Z,9.95
2018-11-13T03:49:15.116Z,10.04
2018-11-13T03:50:15.092Z,9.94
2018-11-13T03:51:15.079Z,10.04
2018-11-13T03:52:15.077Z,10.15
2018-11-13T03:53:15.065Z,9.95
2018-11-13T03:54:15.075Z,10.04
2018-11-13T03:55:15.039Z,10.05
2018-11-13T03:56:15.023Z,9.95
2018-11-13T03:57:15.069Z,9.95
2018-11-13T03:58:15.051Z,10.01
2018-11-13T03:59:15.780Z,9.99
2018-11-13T04:00:14.986Z,10.01
2018-11-13T04:01:15.047Z,9.99
2018-11-13T04:02:16.497Z,10.07
2018-11-13T04:03:14.952Z,10.01
2018-11-13T04:04:14.956Z,10.07
2018-11-13T04:05:14.944Z,10.05
2018-11-13T04:06:14.918Z,10.09
2018-11-13T04:07:14.904Z,10.05
2018-11-13T04:08:14.899Z,9.99
2018-11-13T04:09:14.900Z,9.95
2018-11-13T04:10:14.869Z,9.91
2018-11-13T04:11:14.860Z,9.95
2018-11-13T04:12:14.850Z,10.09
2018-11-13T04:13:14.862Z,10.07
2018-11-13T04:14:14.839Z,10.02
2018-11-13T04:15:14.819Z,9.94
2018-11-13T04:16:14.808Z,10.02
2018-11-13T04:17:14.808Z,10.02
2018-11-13T04:18:14.819Z,9.86
2018-11-13T04:19:14.774Z,10.02
2018-11-13T04:20:14.765Z,9.97
2018-11-13T04:21:14.753Z,10.02
2018-11-13T04:22:14.746Z,9.92
2018-11-13T04:23:14.758Z,9.91
2018-11-13T04:24:14.721Z,9.95
2018-11-13T04:25:14.717Z,9.95
2018-11-13T04:26:14.703Z,9.98
2018-11-13T04:27:14.695Z,10.05
2018-11-13T04:28:14.701Z,9.99
2018-11-13T04:29:14.663Z,10.01
2018-11-13T04:30:14.666Z,10.12
2018-11-13T04:31:14.644Z,10.04
2018-11-13T04:32:14.649Z,10.04
2018-11-13T04:33:14.621Z,10.16
2018-11-13T04:34:14.627Z,10.12
2018-11-13T04:35:14.646Z,10.15
2018-11-13T04:36:14.596Z,10.15
2018-11-13T04:37:14.586Z,10.19
2018-11-13T04:38:14.605Z,10.10
2018-11-13T04:39:14.578Z,10.16
2018-11-13T04:40:14.551Z,10.19
2018-11-13T04:41:14.532Z,10.15
2018-11-13T04:42:14.650Z,10.22
2018-11-13T04:43:14.814Z,10.13
2018-11-13T04:44:15.438Z,10.15
2018-11-13T04:45:15.550Z,10.22
2018-11-13T04:46:14.662Z,10.19
2018-11-13T04:47:14.587Z,10.25
2018-11-13T04:48:14.590Z,10.20
2018-11-13T04:49:14.507Z,10.20
2018-11-13T04:50:14.608Z,10.17
2018-11-13T04:51:14.562Z,10.22
2018-11-13T04:52:14.416Z,10.16
2018-11-13T04:53:14.413Z,10.20
2018-11-13T04:54:14.421Z,10.19
2018-11-13T04:55:14.397Z,10.17
2018-11-13T04:56:14.389Z,10.12
2018-11-13T04:57:14.366Z,10.16
2018-11-13T04:58:14.363Z,10.22
2018-11-13T04:59:14.361Z,10.15
2018-11-13T05:00:14.367Z,10.20
2018-11-13T05:01:14.323Z,10.19
2018-11-13T05:02:14.325Z,10.30
2018-11-13T05:03:18.079Z,10.30
2018-11-13T05:04:14.361Z,10.31
2018-11-13T05:05:16.369Z,10.31
2018-11-13T05:06:14.263Z,10.33
2018-11-13T05:07:14.253Z,10.38
2018-11-13T05:08:14.248Z,10.40
2018-11-13T05:09:14.240Z,10.35
2018-11-13T05:10:14.442Z,10.41
2018-11-13T05:11:14.217Z,10.44
2018-11-13T05:12:14.199Z,10.38
2018-11-13T05:13:14.201Z,10.46
2018-11-13T05:14:14.236Z,10.38
2018-11-13T05:15:14.189Z,10.41
2018-11-13T05:16:14.160Z,10.35
2018-11-13T05:17:14.327Z,10.42
2018-11-13T05:18:14.188Z,10.40
2018-11-13T05:19:14.127Z,10.37
2018-11-13T05:20:14.137Z,10.44
2018-11-13T05:21:14.114Z,10.38
2018-11-13T05:22:14.103Z,10.38
2018-11-13T05:23:14.860Z,10.38
2018-11-13T05:24:14.087Z,10.41
2018-11-13T05:25:14.084Z,10.35
2018-11-13T05:26:14.607Z,10.37
2018-11-13T05:27:14.037Z,10.40
2018-11-13T05:28:14.031Z,10.38
2018-11-13T05:29:14.023Z,10.31
2018-11-13T05:30:14.049Z,10.42
2018-11-13T05:31:13.999Z,10.40
2018-11-13T05:32:13.985Z,10.48
2018-11-13T05:33:13.973Z,10.30
2018-11-13T05:34:13.970Z,10.28
2018-11-13T05:35:13.957Z,10.35
2018-11-13T05:36:13.972Z,10.31
2018-11-13T05:37:13.931Z,10.26
2018-11-13T05:38:13.924Z,10.31
2018-11-13T05:39:13.980Z,10.33
2018-11-13T05:40:13.920Z,10.30
2018-11-13T05:41:13.892Z,10.31
2018-11-13T05:42:13.896Z,10.33
2018-11-13T05:43:13.878Z,10.33
2018-11-13T05:44:13.854Z,10.30
2018-11-13T05:45:13.872Z,10.34
2018-11-13T05:46:13.839Z,10.40
2018-11-13T05:47:13.996Z,10.34
2018-11-13T05:48:14.149Z,10.42
2018-11-13T05:49:13.823Z,10.41
2018-11-13T05:50:13.847Z,10.38
2018-11-13T05:51:13.782Z,10.42
2018-11-13T05:52:13.773Z,10.46
2018-11-13T05:53:13.772Z,10.38
2018-11-13T05:54:13.752Z,10.40
2018-11-13T05:55:13.736Z,10.37
2018-11-13T05:56:14.173Z,10.40
2018-11-13T05:57:13.746Z,10.37
2018-11-13T05:58:13.791Z,10.41
2018-11-13T05:59:13.926Z,10.46
2018-11-13T06:00:13.760Z,10.46
2018-11-13T06:01:13.675Z,10.44
2018-11-13T06:02:16.863Z,10.41
2018-11-13T06:03:13.758Z,10.37
2018-11-13T06:04:13.732Z,10.41
2018-11-13T06:05:13.655Z,10.38
2018-11-13T06:06:13.617Z,10.30
2018-11-13T06:07:13.607Z,10.26
2018-11-13T06:08:15.321Z,10.25
2018-11-13T06:09:14.083Z,10.25
2018-11-13T06:10:13.588Z,10.22
2018-11-13T06:11:13.604Z,10.20
2018-11-13T06:12:13.555Z,10.26
2018-11-13T06:13:13.768Z,10.34
2018-11-13T06:14:13.723Z,10.28
2018-11-13T06:15:13.543Z,10.33
2018-11-13T06:16:13.929Z,10.28
2018-11-13T06:17:13.497Z,10.33
2018-11-13T06:18:13.501Z,10.34
2018-11-13T06:19:13.477Z,10.28
2018-11-13T06:20:13.522Z,10.23
2018-11-13T06:21:13.462Z,10.22
2018-11-13T06:22:13.445Z,10.26
2018-11-13T06:23:13.488Z,10.19
2018-11-13T06:24:13.424Z,10.23
2018-11-13T06:25:13.505Z,10.17
2018-11-13T06:26:13.404Z,10.17
2018-11-13T06:27:13.396Z,10.13
2018-11-13T06:28:13.377Z,10.15
2018-11-13T06:29:13.364Z,10.19
2018-11-13T06:30:13.380Z,10.19
2018-11-13T06:31:13.347Z,10.02
2018-11-13T06:32:13.338Z,10.04
2018-11-13T06:33:13.363Z,9.97
2018-11-13T06:34:13.322Z,10.05
2018-11-13T06:35:13.322Z,10.01
2018-11-13T06:36:13.294Z,10.10
2018-11-13T06:37:13.283Z,10.05
2018-11-13T06:38:13.274Z,10.10
2018-11-13T06:39:21.967Z,10.13
2018-11-13T06:40:14.278Z,10.17
2018-11-13T06:41:13.252Z,10.13
2018-11-13T06:42:13.397Z,10.12
2018-11-13T06:43:13.215Z,10.16
2018-11-13T06:44:13.585Z,10.02
2018-11-13T06:45:25.115Z,10.02
2018-11-13T06:46:14.251Z,9.97
2018-11-13T06:47:13.236Z,9.95
2018-11-13T06:48:13.396Z,9.98
2018-11-13T06:49:13.250Z,9.95
2018-11-13T06:50:13.161Z,10.05
2018-11-13T06:51:13.129Z,9.99
2018-11-13T06:52:13.898Z,10.02
2018-11-13T06:53:13.111Z,9.98
2018-11-13T06:54:13.834Z,10.01
2018-11-13T06:55:13.299Z,9.97
2018-11-13T06:56:15.952Z,9.95
2018-11-13T06:57:14.076Z,9.86
2018-11-13T06:58:13.059Z,9.98
2018-11-13T06:59:14.978Z,10.01
2018-11-13T07:00:13.050Z,9.99
2018-11-13T07:01:13.018Z,9.92
2018-11-13T07:02:13.072Z,10.05
2018-11-13T07:03:13.000Z,10.05
2018-11-13T07:04:12.986Z,10.13
2018-11-13T07:05:13.208Z,10.19
2018-11-13T07:06:12.963Z,10.10
2018-11-13T07:07:12.965Z,10.16
2018-11-13T07:08:12.946Z,10.12
2018-11-13T07:09:12.941Z,10.15
2018-11-13T07:10:12.920Z,10.23
2018-11-13T07:11:12.944Z,10.20
2018-11-13T07:12:12.902Z,10.13
2018-11-13T07:13:12.895Z,10.15
2018-11-13T07:14:12.885Z,10.20
2018-11-13T07:15:12.897Z,10.16
2018-11-13T07:16:12.915Z,10.05
2018-11-13T07:17:12.843Z,9.98
2018-11-13T07:18:12.918Z,10.09
2018-11-13T07:19:12.828Z,10.04
2018-11-13T07:20:12.826Z,10.07
2018-11-13T07:21:12.868Z,9.97
2018-11-13T07:22:12.797Z,10.05
2018-11-13T07:23:12.813Z,9.99
2018-11-13T07:24:13.645Z,9.94
2018-11-13T07:25:15.953Z,9.99
2018-11-13T07:26:14.448Z,9.89
2018-11-13T07:27:12.743Z,9.91
2018-11-13T07:28:13.808Z,9.84
2018-11-13T07:29:13.161Z,9.80
2018-11-13T07:30:12.827Z,9.84
2018-11-13T07:31:12.807Z,9.83
2018-11-13T07:32:12.698Z,9.86
2018-11-13T07:33:12.789Z,9.77
2018-11-13T07:34:12.698Z,9.80
2018-11-13T07:35:12.655Z,9.84
2018-11-13T07:36:12.710Z,9.87
2018-11-13T07:37:12.680Z,9.98
2018-11-13T07:38:12.623Z,9.95
2018-11-13T07:39:12.606Z,9.98
2018-11-13T07:40:12.599Z,10.02
2018-11-13T07:41:12.671Z,9.97
2018-11-13T07:42:12.577Z,10.01
2018-11-13T07:43:12.587Z,9.91
2018-11-13T07:44:12.572Z,10.05
2018-11-13T07:45:12.572Z,10.04
2018-11-13T07:46:12.540Z,10.05
2018-11-13T07:47:12.552Z,10.17
2018-11-13T07:48:12.535Z,10.07
2018-11-13T07:49:12.505Z,10.17
2018-11-13T07:50:12.538Z,10.31
2018-11-13T07:51:12.608Z,10.25
2018-11-13T07:52:12.491Z,10.28
2018-11-13T07:53:12.462Z,10.28
2018-11-13T07:54:12.455Z,10.31
2018-11-13T07:55:12.447Z,10.33
2018-11-13T07:56:12.461Z,10.28
2018-11-13T07:57:13.652Z,10.38
2018-11-13T07:58:12.598Z,10.42
2018-11-13T07:59:12.395Z,10.56
2018-11-13T08:00:12.388Z,10.56
2018-11-13T08:01:12.442Z,10.60
2018-11-13T08:02:12.357Z,10.59
2018-11-13T08:03:12.363Z,10.63
2018-11-13T08:04:12.341Z,10.71
2018-11-13T08:05:12.332Z,10.74
2018-11-13T08:06:12.364Z,10.81
2018-11-13T08:07:12.341Z,10.90
2018-11-13T08:08:12.300Z,11.00
2018-11-13T08:09:12.284Z,11.22
2018-11-13T08:10:12.273Z,11.10
2018-11-13T08:11:12.286Z,11.17
2018-11-13T08:12:12.265Z,11.19
2018-11-13T08:13:12.401Z,11.33
2018-11-13T08:14:12.255Z,11.36
2018-11-13T08:15:12.232Z,11.32
2018-11-13T08:16:12.249Z,11.37
2018-11-13T08:17:12.253Z,11.37
2018-11-13T08:18:12.194Z,11.36
2018-11-13T08:19:12.180Z,11.25
2018-11-13T08:20:12.170Z,11.40
2018-11-13T08:21:12.243Z,11.35
2018-11-13T08:22:12.249Z,11.36
2018-11-13T08:23:12.134Z,11.41
2018-11-13T08:24:12.125Z,11.26
2018-11-13T08:25:12.176Z,11.33
2018-11-13T08:26:12.197Z,11.26
2018-11-13T08:27:12.093Z,11.29
2018-11-13T08:28:12.109Z,11.35
2018-11-13T08:29:12.145Z,11.41
2018-11-13T08:30:12.068Z,11.43
2018-11-13T08:31:12.088Z,11.40
2018-11-13T08:32:12.057Z,11.37
2018-11-13T08:33:12.080Z,11.41
2018-11-13T08:34:12.016Z,11.43
2018-11-13T08:35:12.005Z,11.47
2018-11-13T08:36:12.021Z,11.41
2018-11-13T08:37:12.004Z,11.55
2018-11-13T08:38:11.975Z,11.47
2018-11-13T08:39:11.972Z,11.50
2018-11-13T08:40:11.951Z,11.45
2018-11-13T08:41:11.965Z,11.55
2018-11-13T08:42:11.924Z,11.41
2018-11-13T08:43:11.916Z,11.41
2018-11-13T08:44:12.037Z,11.43
2018-11-13T08:45:11.902Z,11.30
2018-11-13T08:46:11.882Z,11.17
2018-11-13T08:47:11.895Z,11.17
2018-11-13T08:48:11.881Z,11.17
2018-11-13T08:49:11.860Z,11.02
2018-11-13T08:50:11.905Z,11.04
2018-11-13T08:51:11.852Z,11.00
2018-11-13T08:52:11.835Z,11.05
2018-11-13T08:53:11.817Z,11.07
2018-11-13T08:54:11.793Z,11.02
2018-11-13T08:55:11.784Z,11.02
2018-11-13T08:56:11.786Z,11.12
2018-11-13T08:57:11.786Z,11.17
2018-11-13T08:58:11.779Z,11.08
2018-11-13T08:59:11.912Z,10.99
2018-11-13T09:00:11.753Z,11.12
2018-11-13T09:01:11.771Z,11.26
2018-11-13T09:02:11.716Z,11.30
2018-11-13T09:03:11.722Z,11.43
2018-11-13T09:04:11.706Z,11.36
2018-11-13T09:05:11.845Z,11.41
2018-11-13T09:06:11.691Z,11.44
2018-11-13T09:07:11.677Z,11.41
2018-11-13T09:08:11.687Z,11.40
2018-11-13T09:09:11.642Z,11.41
2018-11-13T09:10:11.632Z,11.55
2018-11-13T09:11:11.672Z,11.51
2018-11-13T09:12:11.645Z,11.62
2018-11-13T09:13:11.590Z,11.63
2018-11-13T09:14:11.576Z,11.66
2018-11-13T09:15:11.585Z,11.57
2018-11-13T09:16:11.562Z,11.47
2018-11-13T09:17:11.559Z,11.52
2018-11-13T09:18:11.545Z,11.63
2018-11-13T09:19:11.666Z,11.60
2018-11-13T09:20:11.518Z,11.59
2018-11-13T09:21:11.575Z,11.63
2018-11-13T09:22:11.532Z,11.66
2018-11-13T09:23:11.490Z,11.77
2018-11-13T09:24:11.481Z,11.78
2018-11-13T09:25:11.462Z,11.73
2018-11-13T09:26:11.449Z,11.86
2018-11-13T09:27:11.460Z,12.00
2018-11-13T09:28:11.431Z,12.02
2018-11-13T09:29:11.421Z,12.04
2018-11-13T09:30:11.580Z,12.06
2018-11-13T09:31:11.556Z,12.09
2018-11-13T09:32:11.417Z,12.07
2018-11-13T09:33:11.370Z,11.99
2018-11-13T09:34:11.374Z,12.07
2018-11-13T09:35:11.427Z,12.07
2018-11-13T09:36:11.342Z,12.12
2018-11-13T09:37:11.394Z,12.07
2018-11-13T09:38:11.316Z,12.10
2018-11-13T09:39:11.316Z,12.02
2018-11-13T09:40:11.307Z,12.09
2018-11-13T09:41:11.297Z,12.03
2018-11-13T09:42:11.308Z,11.99
2018-11-13T09:43:11.285Z,11.91
2018-11-13T09:44:11.255Z,11.97
2018-11-13T09:45:11.264Z,12.04
2018-11-13T09:46:11.231Z,12.03
2018-11-13T09:47:11.231Z,12.06
2018-11-13T09:48:11.236Z,12.07
2018-11-13T09:49:11.208Z,12.09
2018-11-13T09:50:11.215Z,12.13
2018-11-13T09:51:11.178Z,12.17
2018-11-13T09:52:11.186Z,12.21
2018-11-13T09:53:11.199Z,12.13
2018-11-13T09:54:11.153Z,12.20
2018-11-13T09:55:11.157Z,12.18
2018-11-13T09:56:11.159Z,12.10
2018-11-13T09:57:11.128Z,12.12
2018-11-13T09:58:11.099Z,12.10
2018-11-13T09:59:11.093Z,12.20
2018-11-13T10:00:11.244Z,12.28
2018-11-13T10:01:11.469Z,12.20
2018-11-13T10:02:11.673Z,12.35
2018-11-13T10:03:11.771Z,12.36
2018-11-13T10:04:11.608Z,12.42
2018-11-13T10:05:11.576Z,12.46
2018-11-13T10:06:11.020Z,12.45
2018-11-13T10:07:11.025Z,12.45
2018-11-13T10:08:11.019Z,12.50
2018-11-13T10:09:10.979Z,12.43
2018-11-13T10:10:11.051Z,12.43
2018-11-13T10:11:10.960Z,12.37
2018-11-13T10:12:10.969Z,12.36
2018-11-13T10:13:10.965Z,12.32
2018-11-13T10:14:10.934Z,12.31
2018-11-13T10:15:10.920Z,12.35
2018-11-13T10:16:10.906Z,12.22
2018-11-13T10:17:10.962Z,12.18
2018-11-13T10:18:11.032Z,12.35
2018-11-13T10:19:10.873Z,12.29
2018-11-13T10:20:10.862Z,12.35
2018-11-13T10:21:10.880Z,12.37
2018-11-13T10:22:10.842Z,12.42
2018-11-13T10:23:10.863Z,12.46
2018-11-13T10:24:10.853Z,12.45
2018-11-13T10:25:10.813Z,12.57
2018-11-13T10:26:10.845Z,12.64
2018-11-13T10:27:10.810Z,12.68
2018-11-13T10:28:10.845Z,12.75
2018-11-13T10:29:10.760Z,12.76
2018-11-13T10:30:10.750Z,12.78
2018-11-13T10:31:10.763Z,12.76
2018-11-13T10:32:10.733Z,12.85
2018-11-13T10:33:10.743Z,12.86
2018-11-13T10:34:10.713Z,12.91
2018-11-13T10:35:10.699Z,12.94
2018-11-13T10:36:10.715Z,12.85
2018-11-13T10:37:10.678Z,12.86
2018-11-13T10:38:10.726Z,12.83
2018-11-13T10:39:10.658Z,12.80
2018-11-13T10:40:10.740Z,12.86
2018-11-13T10:41:10.856Z,12.90
2018-11-13T10:42:10.659Z,12.79
2018-11-13T10:43:10.611Z,12.70
2018-11-13T10:44:10.607Z,12.61
2018-11-13T10:45:10.662Z,12.49
2018-11-13T10:46:10.583Z,12.39
2018-11-13T10:47:10.570Z,12.53
2018-11-13T10:48:10.573Z,12.49
2018-11-13T10:49:10.660Z,12.57
2018-11-13T10:50:10.542Z,12.64
2018-11-13T10:51:10.525Z,12.49
2018-11-13T10:52:10.541Z,12.40
2018-11-13T10:53:10.525Z,12.46
2018-11-13T10:54:10.488Z,12.29
2018-11-13T10:55:10.482Z,12.64
2018-11-13T10:56:10.475Z,12.98
2018-11-13T10:57:10.461Z,13.39
2018-11-13T10:58:10.470Z,13.03
2018-11-13T10:59:10.442Z,12.79
2018-11-13T11:00:10.429Z,12.80
2018-11-13T11:01:10.428Z,12.85
2018-11-13T11:02:10.453Z,13.20
2018-11-13T11:03:10.393Z,13.44
2018-11-13T11:04:10.388Z,13.92
2018-11-13T11:05:10.415Z,13.54
2018-11-13T11:06:10.394Z,13.77
2018-11-13T11:07:10.373Z,14.07
2018-11-13T11:08:10.395Z,14.41
2018-11-13T11:09:10.344Z,14.63
2018-11-13T11:10:10.322Z,15.21
2018-11-13T11:11:10.308Z,15.24
2018-11-13T11:12:10.295Z,15.29
2018-11-13T11:13:10.559Z,14.44
2018-11-13T11:14:10.271Z,14.04
2018-11-13T11:15:10.262Z,13.67
2018-11-13T11:16:10.256Z,13.37
2018-11-13T11:17:10.268Z,13.11
2018-11-13T11:18:10.253Z,12.93
2018-11-13T11:19:10.226Z,12.83
2018-11-13T11:20:10.226Z,12.80
2018-11-13T11:21:10.198Z,12.80
2018-11-13T11:22:10.195Z,12.79
2018-11-13T11:23:10.284Z,12.80
2018-11-13T11:24:10.279Z,12.67
2018-11-13T11:25:10.228Z,12.60
2018-11-13T11:26:10.223Z,12.61
2018-11-13T11:27:10.172Z,12.47
2018-11-13T11:28:10.221Z,12.45
2018-11-13T11:29:10.112Z,12.43
2018-11-13T11:30:10.105Z,12.53
2018-11-13T11:31:10.225Z,12.42
2018-11-13T11:32:10.093Z,12.47
2018-11-13T11:33:10.069Z,12.50
2018-11-13T11:34:10.074Z,12.49
2018-11-13T11:35:10.067Z,12.57
2018-11-13T11:36:10.038Z,12.72
2018-11-13T11:37:10.031Z,12.78
2018-11-13T11:38:10.018Z,12.76
2018-11-13T11:39:10.114Z,12.75
2018-11-13T11:40:09.990Z,12.86
2018-11-13T11:41:09.983Z,12.68
2018-11-13T11:42:09.972Z,12.67
2018-11-13T11:43:09.962Z,12.64
2018-11-13T11:44:10.015Z,12.72
2018-11-13T11:45:09.944Z,12.73
2018-11-13T11:46:09.930Z,12.85
2018-11-13T11:47:09.932Z,12.97
2018-11-13T11:48:09.937Z,13.05
2018-11-13T11:49:09.893Z,13.09
2018-11-13T11:50:09.900Z,13.31
2018-11-13T11:51:09.880Z,13.28
2018-11-13T11:52:09.858Z,13.22
2018-11-13T11:53:09.848Z,13.30
2018-11-13T11:54:09.857Z,13.18
2018-11-13T11:55:09.823Z,13.22
2018-11-13T11:56:09.819Z,13.38
2018-11-13T11:57:09.815Z,13.47
2018-11-13T11:58:09.810Z,13.53
2018-11-13T11:59:09.812Z,13.39
2018-11-13T12:00:09.782Z,13.41
2018-11-13T12:01:09.768Z,13.37
2018-11-13T12:02:09.778Z,13.28
2018-11-13T12:03:09.759Z,13.23
2018-11-13T12:04:09.786Z,13.18
2018-11-13T12:05:09.748Z,13.18
2018-11-13T12:06:09.709Z,13.18
2018-11-13T12:07:09.693Z,13.16
2018-11-13T12:08:09.721Z,13.25
2018-11-13T12:09:09.704Z,13.37
2018-11-13T12:10:09.680Z,13.50
2018-11-13T12:11:09.686Z,13.46
2018-11-13T12:12:09.652Z,13.38
2018-11-13T12:13:09.630Z,13.27
2018-11-13T12:14:09.645Z,13.16
2018-11-13T12:15:09.659Z,13.27
2018-11-13T12:16:09.602Z,13.19
2018-11-13T12:17:09.590Z,13.09
2018-11-13T12:18:09.579Z,13.08
2018-11-13T12:19:09.565Z,13.03
2018-11-13T12:20:09.577Z,13.09
2018-11-13T12:21:09.550Z,13.15
2018-11-13T12:22:09.537Z,13.25
2018-11-13T12:23:09.526Z,13.18
2018-11-13T12:24:09.509Z,13.31
2018-11-13T12:25:09.520Z,13.28
2018-11-13T12:26:09.488Z,13.37
2018-11-13T12:27:09.503Z,13.53
2018-11-13T12:28:09.471Z,13.60
2018-11-13T12:29:09.490Z,13.68
2018-11-13T12:30:09.486Z,13.68
2018-11-13T12:31:09.449Z,13.77
2018-11-13T12:32:09.428Z,13.62
2018-11-13T12:33:09.434Z,13.57
2018-11-13T12:34:09.410Z,13.39
2018-11-13T12:35:09.414Z,13.31
2018-11-13T12:36:09.575Z,13.18
2018-11-13T12:37:09.371Z,13.20
2018-11-13T12:38:09.383Z,13.16
2018-11-13T12:39:09.353Z,13.22
2018-11-13T12:40:09.342Z,13.33
2018-11-13T12:41:09.328Z,13.37
2018-11-13T12:42:09.319Z,13.53
2018-11-13T12:43:09.334Z,13.63
2018-11-13T12:44:09.293Z,13.62
2018-11-13T12:45:09.306Z,13.62
2018-11-13T12:46:09.281Z,13.62
2018-11-13T12:47:09.544Z,13.54
2018-11-13T12:48:09.258Z,13.60
2018-11-13T12:49:09.243Z,13.71
2018-11-13T12:50:09.255Z,13.81
2018-11-13T12:51:09.223Z,13.83
2018-11-13T12:52:09.213Z,13.81
2018-11-13T12:53:09.226Z,13.79
2018-11-13T12:54:09.189Z,13.63
2018-11-13T12:55:09.179Z,13.47
2018-11-13T12:56:09.182Z,13.57
2018-11-13T12:57:09.166Z,13.52
2018-11-13T12:58:09.161Z,13.44
2018-11-13T12:59:09.157Z,13.37
2018-11-13T13:00:09.143Z,13.37